createdAt,value
2023-02-03T00:00:37.181Z,6.35
2023-02-03T00:05:30.469Z,10.45
2023-02-03T00:10:23.991Z,8.00
2023-02-03T00:15:18.010Z,5.38
2023-02-03T00:20:14.012Z,6.88
2023-02-03T00:25:09.070Z,8.27
2023-02-03T00:30:02.784Z,9.60
2023-02-03T00:34:55.923Z,9.20
2023-02-03T00:39:49.491Z,12.05
2023-02-03T00:44:44.059Z,12.65
2023-02-03T00:49:36.295Z,7.75
2023-02-03T00:54:29.439Z,7.65
2023-02-03T00:59:22.669Z,8.95
2023-02-03T01:04:15.986Z,6.75
2023-02-03T01:09:09.087Z,9.38
2023-02-03T01:14:02.397Z,11.63
2023-02-03T01:18:56.620Z,9.27
2023-02-03T01:23:50.568Z,7.90
2023-02-03T01:28:43.327Z,16.80
2023-02-03T01:33:37.583Z,8.68
2023-02-03T01:38:31.425Z,6.78
2023-02-03T01:43:46.219Z,7.05
2023-02-03T01:48:39.095Z,6.85
2023-02-03T01:53:32.585Z,6.07
2023-02-03T01:58:28.732Z,6.90
2023-02-03T02:03:32.254Z,5.88
2023-02-03T02:08:25.853Z,5.88
2023-02-03T02:13:19.907Z,9.23
2023-02-03T02:18:15.594Z,5.20
2023-02-03T02:23:30.043Z,5.75
2023-02-03T02:28:48.025Z,7.28
2023-02-03T02:33:49.855Z,6.53
2023-02-03T02:38:49.853Z,8.45
2023-02-03T02:43:43.057Z,4.63
2023-02-03T02:48:46.942Z,6.97
2023-02-03T02:53:47.977Z,8.00
2023-02-03T02:58:44.573Z,7.85
2023-02-03T03:03:40.628Z,7.35
2023-02-03T03:08:44.623Z,5.90
2023-02-03T03:13:44.663Z,5.72
2023-02-03T03:18:43.244Z,9.65
2023-02-03T03:23:39.868Z,9.13
2023-02-03T03:28:49.015Z,7.05
2023-02-03T03:33:44.191Z,10.05
2023-02-03T03:39:05.216Z,6.28
2023-02-03T03:44:02.756Z,8.55
2023-02-03T03:48:59.544Z,6.50
2023-02-03T03:53:53.544Z,4.45
2023-02-03T03:58:47.314Z,4.88
2023-02-03T04:03:49.673Z,4.95
2023-02-03T04:08:43.459Z,3.70
2023-02-03T04:13:39.770Z,3.22
2023-02-03T04:18:32.247Z,4.47
2023-02-03T04:23:24.973Z,3.92
2023-02-03T04:28:18.618Z,3.08
2023-02-03T04:33:12.485Z,4.90
2023-02-03T04:38:05.278Z,4.95
2023-02-03T04:42:58.271Z,3.78
2023-02-03T04:47:55.168Z,3.92
2023-02-03T04:52:47.647Z,5.40
2023-02-03T04:57:40.466Z,3.58
2023-02-03T05:02:34.305Z,5.25
2023-02-03T05:07:30.076Z,4.03
2023-02-03T05:12:23.105Z,4.53
2023-02-03T05:17:16.186Z,4.65
2023-02-03T05:22:08.821Z,4.03
2023-02-03T05:27:03.399Z,4.57
2023-02-03T05:31:56.226Z,3.88
2023-02-03T05:36:49.634Z,3.85
2023-02-03T05:41:57.094Z,6.15
2023-02-03T05:46:53.186Z,6.78
2023-02-03T05:51:46.977Z,9.75
2023-02-03T05:56:41.277Z,8.85
2023-02-03T06:01:35.356Z,7.75
2023-02-03T06:06:34.103Z,6.30
2023-02-03T06:11:29.136Z,5.77
2023-02-03T06:16:22.417Z,4.15
2023-02-03T06:21:15.819Z,6.75
2023-02-03T06:26:08.776Z,9.80
2023-02-03T06:31:02.352Z,14.55
2023-02-03T06:35:56.024Z,7.13
2023-02-03T06:40:49.700Z,10.70
2023-02-03T06:45:42.564Z,9.73
2023-02-03T06:50:36.428Z,11.93
2023-02-03T06:55:28.689Z,6.65
2023-02-03T07:00:23.023Z,9.95
2023-02-03T07:05:16.606Z,9.30
2023-02-03T07:10:11.176Z,7.18
2023-02-03T07:15:24.304Z,11.00
2023-02-03T07:20:18.658Z,12.52
2023-02-03T07:25:12.671Z,11.77
2023-02-03T07:30:09.340Z,8.98
2023-02-03T07:35:03.364Z,8.68
2023-02-03T07:39:56.579Z,7.43
2023-02-03T07:44:50.265Z,17.95
2023-02-03T07:49:44.474Z,15.07
2023-02-03T07:54:37.601Z,10.40
2023-02-03T07:59:30.528Z,9.30
2023-02-03T08:04:28.309Z,13.48
2023-02-03T08:09:21.184Z,13.18
2023-02-03T08:14:15.360Z,8.75
2023-02-03T08:19:08.921Z,11.95
2023-02-03T08:24:02.370Z,11.10
2023-02-03T08:28:56.121Z,12.00
2023-02-03T08:33:49.913Z,13.05
2023-02-03T08:38:42.911Z,11.80
2023-02-03T08:43:37.117Z,11.25
2023-02-03T08:48:29.611Z,18.02
2023-02-03T08:53:22.697Z,14.27
2023-02-03T08:58:15.640Z,14.55
2023-02-03T09:03:08.865Z,15.40
2023-02-03T09:08:02.436Z,16.48
2023-02-03T09:12:55.209Z,16.25
2023-02-03T09:17:48.128Z,13.52
2023-02-03T09:22:45.084Z,15.40
2023-02-03T09:27:38.961Z,20.05
2023-02-03T09:48:59.162Z,22.10
2023-02-03T09:54:13.028Z,20.50
2023-02-03T09:59:06.060Z,17.88
2023-02-03T10:04:23.390Z,21.10
2023-02-03T10:09:31.338Z,20.42
2023-02-03T10:14:23.984Z,24.10
2023-02-03T10:19:27.938Z,22.35
2023-02-03T10:24:25.997Z,23.45
2023-02-03T10:29:44.110Z,33.10
2023-02-03T10:34:38.279Z,35.75
2023-02-03T10:39:40.014Z,48.72
2023-02-03T10:44:41.340Z,40.28
2023-02-03T10:49:34.386Z,40.15
2023-02-03T10:54:33.726Z,48.85
2023-02-03T10:59:31.775Z,35.28
2023-02-03T11:04:33.847Z,51.20
2023-02-03T11:09:35.965Z,51.47
2023-02-03T11:14:39.405Z,47.58
2023-02-03T11:19:34.233Z,58.42
2023-02-03T11:24:34.452Z,53.00
2023-02-03T11:29:35.543Z,59.03
2023-02-03T11:34:44.360Z,55.70
2023-02-03T11:39:41.129Z,60.20
2023-02-03T11:44:40.641Z,61.60
2023-02-03T11:49:50.217Z,60.50
2023-02-03T11:54:54.434Z,60.30
2023-02-03T11:59:55.960Z,63.28
2023-02-03T12:05:24.694Z,63.08
2023-02-03T12:10:24.986Z,67.47
2023-02-03T12:15:28.511Z,68.60
2023-02-03T12:20:35.817Z,64.55
2023-02-03T12:30:45.378Z,70.63
2023-02-03T12:35:56.030Z,66.40
2023-02-03T12:41:19.442Z,71.50
2023-02-03T12:46:19.860Z,69.20
2023-02-03T12:51:43.187Z,65.60
2023-02-03T12:56:45.557Z,67.05
2023-02-03T13:01:50.888Z,61.03
2023-02-03T13:07:16.743Z,56.95
2023-02-03T13:12:29.768Z,36.40
2023-02-03T13:17:35.547Z,60.95
2023-02-03T13:22:35.974Z,73.45
2023-02-03T13:27:52.377Z,40.88
2023-02-03T13:33:18.387Z,43.38
2023-02-03T13:38:44.271Z,37.88
2023-02-03T13:43:49.959Z,38.30
2023-02-03T13:48:53.312Z,45.72
2023-02-03T13:53:54.369Z,45.50
2023-02-03T13:59:06.258Z,58.70
2023-02-03T14:04:06.329Z,44.28
2023-02-03T14:09:03.734Z,39.75
2023-02-03T14:14:13.828Z,43.28
2023-02-03T14:19:17.709Z,42.58
2023-02-03T14:24:21.723Z,46.35
2023-02-03T14:29:39.202Z,46.87
2023-02-03T14:34:45.481Z,53.05
2023-02-03T14:40:07.764Z,45.15
2023-02-03T14:45:20.924Z,52.50
2023-02-03T14:50:42.334Z,51.70
2023-02-03T14:56:05.632Z,50.55
2023-02-03T15:00:59.187Z,46.75
2023-02-03T15:05:58.376Z,44.38
2023-02-03T15:10:51.474Z,52.58
2023-02-03T15:15:45.388Z,60.10
2023-02-03T15:21:00.481Z,63.45
2023-02-03T15:25:55.522Z,58.95
2023-02-03T15:31:08.766Z,56.00
2023-02-03T15:36:06.758Z,60.67
2023-02-03T15:41:00.578Z,56.95
2023-02-03T15:46:04.341Z,64.85
2023-02-03T15:51:19.647Z,61.78
2023-02-03T15:56:38.125Z,60.70
2023-02-03T16:01:31.102Z,58.08
2023-02-03T16:06:31.195Z,64.35
2023-02-03T16:11:55.830Z,63.88
2023-02-03T16:17:04.899Z,63.78
2023-02-03T16:22:01.138Z,66.63
2023-02-03T16:27:00.360Z,60.58
2023-02-03T16:32:14.378Z,67.00
2023-02-03T16:37:55.079Z,74.50
2023-02-03T16:43:14.135Z,77.38
2023-02-03T16:48:32.473Z,74.40
2023-02-03T16:53:36.123Z,77.80
2023-02-03T16:58:37.677Z,81.43
2023-02-03T17:03:35.203Z,81.38
2023-02-03T17:13:25.254Z,79.97
2023-02-03T17:18:20.868Z,84.82
2023-02-03T17:23:17.363Z,83.70
2023-02-03T17:28:15.224Z,88.50
2023-02-03T17:33:18.121Z,104.93
2023-02-03T17:38:34.963Z,89.95
2023-02-03T17:54:12.684Z,94.28
2023-02-03T17:59:12.329Z,91.70
2023-02-03T18:04:12.532Z,90.95
2023-02-03T18:09:17.278Z,91.00
2023-02-03T18:14:20.413Z,93.22
2023-02-03T18:19:19.743Z,80.00
2023-02-03T18:24:21.460Z,91.07
2023-02-03T18:29:22.330Z,89.30
2023-02-03T18:34:24.004Z,114.72
2023-02-03T18:39:21.446Z,102.75
2023-02-03T18:44:22.208Z,116.45
2023-02-03T18:49:21.850Z,111.22
2023-02-03T18:54:23.710Z,102.13
2023-02-03T18:59:22.388Z,102.05
2023-02-03T19:04:19.504Z,101.60
2023-02-03T19:09:19.760Z,96.22
2023-02-03T19:14:18.844Z,97.00
2023-02-03T19:19:17.418Z,102.90
2023-02-03T19:24:17.379Z,96.80
2023-02-03T19:29:12.948Z,99.70
2023-02-03T19:34:10.188Z,107.38
2023-02-03T19:39:08.308Z,95.90
2023-02-03T19:44:07.735Z,103.20
2023-02-03T19:49:16.705Z,92.38
2023-02-03T19:54:19.656Z,110.15
2023-02-03T19:59:15.497Z,112.97
2023-02-03T20:04:08.294Z,95.38
2023-02-03T20:09:01.515Z,69.90
2023-02-03T20:13:55.553Z,71.65
2023-02-03T20:18:48.793Z,63.45
2023-02-03T20:23:41.544Z,58.33
2023-02-03T20:28:34.584Z,53.35
2023-02-03T20:33:29.792Z,60.45
2023-02-03T20:38:23.632Z,56.85
2023-02-03T20:43:22.217Z,60.83
2023-02-03T20:48:16.678Z,62.78
2023-02-03T20:53:16.837Z,51.20
2023-02-03T20:58:19.434Z,43.22
2023-02-03T21:03:33.141Z,47.30
2023-02-03T21:08:27.869Z,47.45
2023-02-03T21:13:28.860Z,44.97
2023-02-03T21:18:51.968Z,49.83
2023-02-03T21:23:47.746Z,53.75
2023-02-03T21:28:42.149Z,56.78
2023-02-03T21:33:42.690Z,67.95
2023-02-03T21:38:36.100Z,62.90
2023-02-03T21:43:33.108Z,56.17
2023-02-03T21:48:34.984Z,59.72
2023-02-03T21:53:33.417Z,61.88
2023-02-03T21:58:34.756Z,65.05
2023-02-03T22:03:27.300Z,61.35
2023-02-03T22:08:24.633Z,69.60
2023-02-03T22:13:18.726Z,59.72
2023-02-03T22:18:12.166Z,59.35
2023-02-03T22:23:06.326Z,52.55
2023-02-03T22:27:59.384Z,56.17
2023-02-03T22:32:52.461Z,57.40
2023-02-03T22:37:46.052Z,55.45
2023-02-03T22:42:39.492Z,50.40
2023-02-03T22:47:33.073Z,54.00
2023-02-03T22:52:25.944Z,46.85
2023-02-03T22:57:19.653Z,53.97
2023-02-03T23:02:12.837Z,46.35
2023-02-03T23:07:06.705Z,38.90
2023-02-03T23:11:59.452Z,33.65
2023-02-03T23:16:52.338Z,29.90
2023-02-03T23:21:46.437Z,28.35
2023-02-03T23:26:40.901Z,22.70
2023-02-03T23:31:34.330Z,20.02
2023-02-03T23:36:28.168Z,27.25
2023-02-03T23:41:22.373Z,18.15
2023-02-03T23:46:15.360Z,20.05
2023-02-03T23:51:09.248Z,22.48
2023-02-03T23:56:02.646Z,22.67
